Venice, CA

11:09 PDT le 25 octobre 2014 (GMT -0700)
Abbot Kinney | Change Station
CLOSE
Current Station
Stations météorologiques personnelles
Location: Venice, CA
Altitude: 20 ft
Stations météo à proximité
Avis météorologiques actifs: Beach Hazard Statement Préavis actif: Record Report

Alt. 20 ft 33.99 °N, 118.47 °W | Updated 23 seconds ago

Partly Cloudy
Partiellement nuageux
70.4 ° F
Paraît 71 ° F
N
3.0
Vent Variable Vent de Ouest
Gusts 0.0 mph

Aujourd'hui
Haut(e) -- | Bas -- ° F
--% Risque de précip.
Hier
Haut(e) -- | Bas -- ° F
Precip. -- pouce
7:07 AM 6:08 PM
Lune montante, 4% visible
Pression 30.06 pouce
Visibilité 10.0 Miles terrestres
Nuages Peu 9500 ft
indice de chaleur 71 ° F
Point de rosée 64 ° F
Humidité 79%
Précipitations 0.00 pouce
Profondeur de la couche neigeuse Non disponible.
UV 4.0 sur 12
Pollen 3.80 sur 12
Ozone Bon
Flu Activity Sporadic
METAR KSMO 251751Z 21007KT 10SM FEW095 23/13 A3006 RMK AO2 SLP177 T02330128 10233 20156 51013 $

More Conditions Fewer Conditions

Pression 30.06 pouce
Visibilité 10.0 Miles terrestres
Nuages Peu 9500 ft
indice de chaleur 71 ° F
Point de rosée 64 ° F
Humidité 79%
Précipitations 0.00 pouce
Profondeur de la couche neigeuse Non disponible.
UV 4.0 sur 12
Pollen 3.80 sur 12
Ozone Bon
Flu Activity Sporadic
METAR KSMO 251751Z 21007KT 10SM FEW095 23/13 A3006 RMK AO2 SLP177 T02330128 10233 20156 51013 $

More Conditions Fewer Conditions

10-Day Weather Forecast

Almanac

Astronomie

Oct. 25, 2014 Lever Coucher
Temps réel 07:07 PDT 18:08 PDT
Crépuscule civil 06:41 PDT 18:33 PDT
Crépuscule nautique 06:12 PDT 19:02 PDT
Crépuscule astronomique 05:43 PDT 19:31 PDT
Lune 08:47 PDT 19:38 PDT
Durée de lumière visible 11h 51m
Longueur du jour
11h 00m
Tomorrow will be 1m 56s shorter.
Lune montante, 4% of the Moon is Illuminated
Aujourd'hui
Lune montante
Oct 30
Premier quartier
Nov 6
Pleine lune
Nov 14
Dernier quartier
Nov 22
Nouveau

Extrêmes aujourd'hui

State Highs State Lows

Community

WunderPhotos

Upload Photos

1,764,926 Photos téléchargées !

Nearby

Qualité de l'air

  Qualité de l'air Indice de la qualité de l'air Polluant
Hier Moyen
OZONE
Actuel Bon
OZONE
dimanche Bon
PM10
dimanche Bon
OZONE
dimanche Bon
CO
dimanche Bon
NO2

Épaisseur de neige

Station Depth Altitude
Virginia Lakes Ridge 0 in 9200 ft
Leavitt Lake 1 in 9400 ft
Sonora Pass 0 in 8800 ft
Leavitt Meadows 0 in 7200 ft
Summit Meadow 1 in 9122 ft

Activité sismique

Ville Distance Mag. Time & Date
Running Springs, California 83 Miles terrestres 3.1 04:07 PDT
2014-10-25
Brea, California 32 Miles terrestres 2.9 15:35 PDT
2014-10-23
Brea, California 32 Miles terrestres 2.8 15:34 PDT
2014-10-23
Corona, California 46 Miles terrestres 2.5 13:09 PDT
2014-10-23
Minimum magnitude displayed is 2.5.

Températures des eaux côtières

Lieu Température
Santa Monica Pier 68.0 ° F
Los Angeles, CA 69.1 ° F
La Jolla, CA 70.0 ° F

Stations météo à proximité